University Oxford Airport
KUOX : now visible

Airfield :











YOU CAN JOIN US ON...

 
LOGIN :

Register | Disclaimer

   EN    FR    IT 

 









Legend :    VFR   Marginal VFR   IFR   Intensive IFR   Very Intensive IFR
Visi :
Ceiling :
>= 8 km
>= 3000ft
5 to 8 km
1000 to 3000 ft
1500m to 5 km
500 to 1000 ft
800 to 1500m
200 to 500 ft
< 800m
< 200 ft
Symbols :   Thunderstorms  Fog  Heavy snow  Heavy precipitations  Wind > 20 kt







- Airport Elevation : 452 ft


KUOX - University Oxford

CURRENT METAR :
  • 161235Z AUTO VRB06KT 9SM BKN021 24/22 A3002 RMK AO2

EXPIRED METARs :
  • 161215Z AUTO 21005KT 9SM FEW015 SCT085 24/21 A3001 RMK AO2
  • 161155Z AUTO VRB03KT 9SM SCT085 23/21 A3001 RMK AO2
  • 161135Z AUTO VRB04KT 9SM FEW016 23/21 A3000 RMK AO2
  • 161115Z AUTO VRB03KT 9SM CLR 23/21 A2999 RMK AO2
  • 161055Z AUTO 21005KT 10SM CLR 23/21 A2998 RMK AO2
  • 161035Z AUTO VRB04G10KT 10SM CLR 23/21 A2998 RMK AO2
  • 161015Z AUTO VRB06KT 10SM CLR 23/21 A2997 RMK AO2
  • 160955Z AUTO 20007KT 150V240 10SM CLR 23/21 A2996 RMK AO2

TAF N/A
KZME FIR / North America



MET'MAP, your aeronautical weather chart ! - Copyright ORBIFLY December 2007 - Disclaimer

ORBIFLY MET'MAP TEAM :

Programming & Development : Alexandra Zaïnal
Concept & Development : Baudouin d'Aumeries
Co-Development & Prog : Marc-Olivier Méhu
Technical & hardware support : Manuel Goepfert

Contact : metmap@orbifly.com




SOURCES & CREDITS :

   NOAA       Earth
Advisory